Quick Links (Output Below):   Max & Min Temps   /   Climate Reports   /   Zone Forecasts
River Forecasts   /   Forestry Forecasts   /   Aviation Forecasts   /   Radars   /   Features

Terminal Aerodrome Forecast (Fort Smith)

Pick a Site:
Arkadelphia | El Dorado | Fayetteville | Fort Smith | Harrison | Highfill | Hot Springs | Jonesboro
Little Rock | Monticello | Mountain Home | Pine Bluff | Texarkana
 Forecast 

KFSM 101720Z 1018/1118 18010KT P6SM SKC
     FM102000 23012G18KT P6SM SKC
     FM110000 27004KT P6SM SKC
     FM110600 VRB03KT P6SM FEW250
     FM111500 01006KT P6SM SCT250=


 Latest METARs (Observations) 
How to Decode METARs
20Z KFSM 101953Z 23010KT 10SM CLR 12/M09 A3011 RMK AO2 SLP198
         T01221089
         
19Z KFSM 101853Z 24009KT 10SM CLR 09/M11 A3017 RMK AO2 SLP218
         T00941106
         
18Z KFSM 101753Z 20006KT 10SM CLR 06/M12 A3022 RMK AO2 SLP237
         T00611122 10067 21056 58036
         
17Z KFSM 101653Z 16006KT 10SM CLR 03/M13 A3027 RMK AO2 SLP252
         T00331133
         
16Z KFSM 101553Z VRB04KT 10SM CLR 02/M14 A3030 RMK AO2 SLP265
         T00171139
         
15Z KFSM 101453Z 00000KT 10SM CLR 00/M14 A3033 RMK AO2 SLP274
         T00001139 51006
         
14Z KFSM 101353Z 00000KT 10SM CLR M03/M11 A3032 RMK AO2 SLP270
         T10331106
         
13Z KFSM 101253Z 27007KT 10SM FEW095 M06/M12 A3033 RMK AO2 SLP273
         T10561122 $
         
12Z KFSM 101153Z 24004KT 10SM CLR M06/M11 A3031 RMK AO2 SLP268
         T10561111 10000 21056 56001 $
         
11Z KFSM 101053Z AUTO 00000KT 10SM CLR M04/M13 A3031 RMK AO2 SLP269
         T10391128 $
         
***** Today's Observations (Above) *****


Back to Main Page
http://www.srh.noaa.gov/lzk/qfcst.php

USA.gov is the U.S. government's official web portal to all federal, state and local government web resources and services.